sensor_id;sensor_type;location;lat;lon;timestamp;temperature;humidity
17726;DHT22;8983;53.156;17.960;2023-02-03T00:01:58;0.10;99.90
17726;DHT22;8983;53.156;17.960;2023-02-03T00:04:26;0.10;99.90
17726;DHT22;8983;53.156;17.960;2023-02-03T00:06:55;0.10;99.90
17726;DHT22;8983;53.156;17.960;2023-02-03T00:09:23;0.00;99.90
17726;DHT22;8983;53.156;17.960;2023-02-03T00:11:51;0.00;99.90
17726;DHT22;8983;53.156;17.960;2023-02-03T00:14:19;0.00;99.90
17726;DHT22;8983;53.156;17.960;2023-02-03T00:16:47;0.00;99.90
17726;DHT22;8983;53.156;17.960;2023-02-03T00:19:16;-0.10;99.90
17726;DHT22;8983;53.156;17.960;2023-02-03T00:21:44;0.10;99.90
17726;DHT22;8983;53.156;17.960;2023-02-03T00:24:12;-0.10;99.90
17726;DHT22;8983;53.156;17.960;2023-02-03T00:26:41;-0.10;99.90
17726;DHT22;8983;53.156;17.960;2023-02-03T00:29:09;-0.10;99.90
17726;DHT22;8983;53.156;17.960;2023-02-03T00:31:38;-0.10;99.90
17726;DHT22;8983;53.156;17.960;2023-02-03T00:34:06;-0.10;99.90
17726;DHT22;8983;53.156;17.960;2023-02-03T00:36:35;-0.20;99.90
17726;DHT22;8983;53.156;17.960;2023-02-03T00:39:03;-0.20;99.90
17726;DHT22;8983;53.156;17.960;2023-02-03T00:41:31;-0.20;99.90
17726;DHT22;8983;53.156;17.960;2023-02-03T00:43:59;-0.20;99.90
17726;DHT22;8983;53.156;17.960;2023-02-03T00:46:27;-0.20;99.90
17726;DHT22;8983;53.156;17.960;2023-02-03T00:48:55;-0.20;99.90
17726;DHT22;8983;53.156;17.960;2023-02-03T00:51:23;-0.30;99.90
17726;DHT22;8983;53.156;17.960;2023-02-03T00:53:53;-0.30;99.90
17726;DHT22;8983;53.156;17.960;2023-02-03T00:56:21;-0.30;99.90
17726;DHT22;8983;53.156;17.960;2023-02-03T00:58:49;-0.30;99.90
17726;DHT22;8983;53.156;17.960;2023-02-03T01:01:17;-0.30;99.90
17726;DHT22;8983;53.156;17.960;2023-02-03T01:03:45;-0.30;99.90
17726;DHT22;8983;53.156;17.960;2023-02-03T01:06:14;-0.30;99.90
17726;DHT22;8983;53.156;17.960;2023-02-03T01:08:42;-0.30;99.90
17726;DHT22;8983;53.156;17.960;2023-02-03T01:11:14;-0.30;99.90
17726;DHT22;8983;53.156;17.960;2023-02-03T01:13:43;0.50;99.90
17726;DHT22;8983;53.156;17.960;2023-02-03T01:16:13;-0.30;99.90
17726;DHT22;8983;53.156;17.960;2023-02-03T01:18:42;-0.30;99.90
17726;DHT22;8983;53.156;17.960;2023-02-03T01:21:12;-0.30;99.90
17726;DHT22;8983;53.156;17.960;2023-02-03T01:23:40;-0.30;99.90
17726;DHT22;8983;53.156;17.960;2023-02-03T01:26:10;-0.30;99.90
17726;DHT22;8983;53.156;17.960;2023-02-03T01:28:40;-0.30;99.90
17726;DHT22;8983;53.156;17.960;2023-02-03T01:31:10;-0.30;99.90
17726;DHT22;8983;53.156;17.960;2023-02-03T01:33:39;-0.40;99.90
17726;DHT22;8983;53.156;17.960;2023-02-03T01:36:08;-0.40;99.90
17726;DHT22;8983;53.156;17.960;2023-02-03T01:38:37;-0.40;99.90
17726;DHT22;8983;53.156;17.960;2023-02-03T01:41:06;0.70;99.90
17726;DHT22;8983;53.156;17.960;2023-02-03T01:43:37;-0.40;99.90
17726;DHT22;8983;53.156;17.960;2023-02-03T01:46:17;-0.30;99.90
17726;DHT22;8983;53.156;17.960;2023-02-03T01:48:48;-0.30;99.90
17726;DHT22;8983;53.156;17.960;2023-02-03T01:51:17;-0.30;99.90
17726;DHT22;8983;53.156;17.960;2023-02-03T01:53:45;-0.30;99.90
17726;DHT22;8983;53.156;17.960;2023-02-03T01:56:13;-0.20;99.90
17726;DHT22;8983;53.156;17.960;2023-02-03T01:58:43;-0.20;99.90
17726;DHT22;8983;53.156;17.960;2023-02-03T02:01:13;-0.20;99.90
17726;DHT22;8983;53.156;17.960;2023-02-03T02:03:47;-0.20;99.90
17726;DHT22;8983;53.156;17.960;2023-02-03T02:06:17;-0.20;99.90
17726;DHT22;8983;53.156;17.960;2023-02-03T02:08:47;-0.20;99.90
17726;DHT22;8983;53.156;17.960;2023-02-03T02:11:15;-0.20;99.90
17726;DHT22;8983;53.156;17.960;2023-02-03T02:13:45;-0.20;99.90
17726;DHT22;8983;53.156;17.960;2023-02-03T02:16:17;-0.20;99.90
17726;DHT22;8983;53.156;17.960;2023-02-03T02:18:56;-0.20;99.90
17726;DHT22;8983;53.156;17.960;2023-02-03T02:21:55;-0.20;99.90
17726;DHT22;8983;53.156;17.960;2023-02-03T02:31:01;-0.20;99.90
17726;DHT22;8983;53.156;17.960;2023-02-03T02:33:40;-0.20;99.90
17726;DHT22;8983;53.156;17.960;2023-02-03T02:36:20;-0.20;99.90
17726;DHT22;8983;53.156;17.960;2023-02-03T02:38:57;-0.20;99.90
17726;DHT22;8983;53.156;17.960;2023-02-03T02:41:30;-0.20;99.90
17726;DHT22;8983;53.156;17.960;2023-02-03T02:44:06;-0.20;99.90
17726;DHT22;8983;53.156;17.960;2023-02-03T02:46:38;-0.20;99.90
17726;DHT22;8983;53.156;17.960;2023-02-03T02:49:13;-0.20;99.90
17726;DHT22;8983;53.156;17.960;2023-02-03T02:51:43;-0.20;99.90
17726;DHT22;8983;53.156;17.960;2023-02-03T02:54:16;-0.20;99.90
17726;DHT22;8983;53.156;17.960;2023-02-03T02:56:48;-0.20;99.90
17726;DHT22;8983;53.156;17.960;2023-02-03T02:59:18;-0.20;99.90
17726;DHT22;8983;53.156;17.960;2023-02-03T03:01:46;-0.20;99.90
17726;DHT22;8983;53.156;17.960;2023-02-03T03:04:20;-0.10;99.90
17726;DHT22;8983;53.156;17.960;2023-02-03T03:06:52;-0.10;99.90
17726;DHT22;8983;53.156;17.960;2023-02-03T03:09:25;-0.10;99.90
17726;DHT22;8983;53.156;17.960;2023-02-03T03:11:57;-0.10;99.90
17726;DHT22;8983;53.156;17.960;2023-02-03T03:14:30;-0.10;99.90
17726;DHT22;8983;53.156;17.960;2023-02-03T03:17:03;-0.10;99.90
17726;DHT22;8983;53.156;17.960;2023-02-03T03:19:37;-0.10;99.90
17726;DHT22;8983;53.156;17.960;2023-02-03T03:22:08;-0.10;99.90
17726;DHT22;8983;53.156;17.960;2023-02-03T03:24:41;-0.20;99.90
17726;DHT22;8983;53.156;17.960;2023-02-03T03:27:17;-0.20;99.90
17726;DHT22;8983;53.156;17.960;2023-02-03T03:29:49;-0.20;99.90
17726;DHT22;8983;53.156;17.960;2023-02-03T03:32:19;-0.20;99.90
17726;DHT22;8983;53.156;17.960;2023-02-03T03:34:49;-0.20;99.90
17726;DHT22;8983;53.156;17.960;2023-02-03T03:37:22;-0.20;99.90
17726;DHT22;8983;53.156;17.960;2023-02-03T03:39:54;0.30;99.90
17726;DHT22;8983;53.156;17.960;2023-02-03T03:42:26;-0.20;99.90
17726;DHT22;8983;53.156;17.960;2023-02-03T03:45:02;-0.20;99.90
17726;DHT22;8983;53.156;17.960;2023-02-03T03:47:36;2.30;99.90
17726;DHT22;8983;53.156;17.960;2023-02-03T03:50:09;-0.20;99.90
17726;DHT22;8983;53.156;17.960;2023-02-03T03:52:38;-0.10;99.90
17726;DHT22;8983;53.156;17.960;2023-02-03T03:55:09;-0.10;99.90
17726;DHT22;8983;53.156;17.960;2023-02-03T03:57:41;-0.10;99.90
17726;DHT22;8983;53.156;17.960;2023-02-03T04:00:11;-0.10;99.90
17726;DHT22;8983;53.156;17.960;2023-02-03T04:02:45;-0.10;99.90
17726;DHT22;8983;53.156;17.960;2023-02-03T04:05:19;-0.10;99.90
17726;DHT22;8983;53.156;17.960;2023-02-03T04:07:48;-0.10;99.90
17726;DHT22;8983;53.156;17.960;2023-02-03T04:10:23;-0.10;99.90
17726;DHT22;8983;53.156;17.960;2023-02-03T04:12:52;0.00;99.90
17726;DHT22;8983;53.156;17.960;2023-02-03T04:15:20;0.00;99.90
17726;DHT22;8983;53.156;17.960;2023-02-03T04:17:48;0.00;99.90
17726;DHT22;8983;53.156;17.960;2023-02-03T04:20:18;0.00;99.90
17726;DHT22;8983;53.156;17.960;2023-02-03T04:22:46;0.00;99.90
17726;DHT22;8983;53.156;17.960;2023-02-03T04:25:14;0.00;99.90
17726;DHT22;8983;53.156;17.960;2023-02-03T04:27:42;0.00;99.90
17726;DHT22;8983;53.156;17.960;2023-02-03T04:30:11;-0.10;99.90
17726;DHT22;8983;53.156;17.960;2023-02-03T04:32:39;0.00;99.90
17726;DHT22;8983;53.156;17.960;2023-02-03T04:35:07;0.00;99.90
17726;DHT22;8983;53.156;17.960;2023-02-03T04:37:37;-0.10;99.90
17726;DHT22;8983;53.156;17.960;2023-02-03T04:40:06;-0.10;99.90
17726;DHT22;8983;53.156;17.960;2023-02-03T04:42:35;-0.10;99.90
17726;DHT22;8983;53.156;17.960;2023-02-03T04:45:05;-0.10;99.90
17726;DHT22;8983;53.156;17.960;2023-02-03T04:47:34;-0.20;99.90
17726;DHT22;8983;53.156;17.960;2023-02-03T04:50:03;-0.20;99.90
17726;DHT22;8983;53.156;17.960;2023-02-03T04:52:31;-0.10;99.90
17726;DHT22;8983;53.156;17.960;2023-02-03T04:55:00;-0.10;99.90
17726;DHT22;8983;53.156;17.960;2023-02-03T04:57:29;-0.10;99.90
17726;DHT22;8983;53.156;17.960;2023-02-03T04:59:58;-0.10;99.90
17726;DHT22;8983;53.156;17.960;2023-02-03T05:02:25;-0.20;99.90
17726;DHT22;8983;53.156;17.960;2023-02-03T05:04:53;-0.20;99.90
17726;DHT22;8983;53.156;17.960;2023-02-03T05:07:21;-0.10;99.90
17726;DHT22;8983;53.156;17.960;2023-02-03T05:09:49;-0.10;99.90
17726;DHT22;8983;53.156;17.960;2023-02-03T05:12:18;-0.10;99.90
17726;DHT22;8983;53.156;17.960;2023-02-03T05:14:46;-0.10;99.90
17726;DHT22;8983;53.156;17.960;2023-02-03T05:17:14;-0.10;99.90
17726;DHT22;8983;53.156;17.960;2023-02-03T05:19:42;0.00;99.90
17726;DHT22;8983;53.156;17.960;2023-02-03T05:22:11;-0.10;99.90
17726;DHT22;8983;53.156;17.960;2023-02-03T05:24:39;-0.10;99.90
17726;DHT22;8983;53.156;17.960;2023-02-03T05:27:07;-0.10;99.90
17726;DHT22;8983;53.156;17.960;2023-02-03T05:29:36;-0.10;99.90
17726;DHT22;8983;53.156;17.960;2023-02-03T05:32:04;-0.10;99.90
17726;DHT22;8983;53.156;17.960;2023-02-03T05:34:32;-0.10;99.90
17726;DHT22;8983;53.156;17.960;2023-02-03T05:37:03;-0.10;99.90
17726;DHT22;8983;53.156;17.960;2023-02-03T05:39:30;-0.10;99.90
17726;DHT22;8983;53.156;17.960;2023-02-03T05:41:58;-0.10;99.90
17726;DHT22;8983;53.156;17.960;2023-02-03T05:44:27;0.00;99.90
17726;DHT22;8983;53.156;17.960;2023-02-03T05:46:58;-0.10;99.90
17726;DHT22;8983;53.156;17.960;2023-02-03T05:49:26;-0.10;99.90
17726;DHT22;8983;53.156;17.960;2023-02-03T05:51:55;-0.10;99.90
17726;DHT22;8983;53.156;17.960;2023-02-03T05:54:23;-0.10;99.90
17726;DHT22;8983;53.156;17.960;2023-02-03T05:56:51;-0.10;99.90
17726;DHT22;8983;53.156;17.960;2023-02-03T05:59:19;-0.10;99.90
17726;DHT22;8983;53.156;17.960;2023-02-03T06:01:47;-0.10;99.90
17726;DHT22;8983;53.156;17.960;2023-02-03T06:04:16;0.00;99.90
17726;DHT22;8983;53.156;17.960;2023-02-03T06:06:45;-0.10;99.90
17726;DHT22;8983;53.156;17.960;2023-02-03T06:09:13;-0.10;99.90
17726;DHT22;8983;53.156;17.960;2023-02-03T06:11:41;0.00;99.90
17726;DHT22;8983;53.156;17.960;2023-02-03T06:14:09;0.00;99.90
17726;DHT22;8983;53.156;17.960;2023-02-03T06:16:37;0.00;99.90
17726;DHT22;8983;53.156;17.960;2023-02-03T06:19:05;0.00;99.90
17726;DHT22;8983;53.156;17.960;2023-02-03T06:21:34;0.00;99.90
17726;DHT22;8983;53.156;17.960;2023-02-03T06:24:03;0.00;99.90
17726;DHT22;8983;53.156;17.960;2023-02-03T06:26:31;0.00;99.90
17726;DHT22;8983;53.156;17.960;2023-02-03T06:28:59;0.00;99.90
17726;DHT22;8983;53.156;17.960;2023-02-03T06:31:27;0.00;99.90
17726;DHT22;8983;53.156;17.960;2023-02-03T06:33:55;0.00;99.90
17726;DHT22;8983;53.156;17.960;2023-02-03T06:36:23;0.00;99.90
17726;DHT22;8983;53.156;17.960;2023-02-03T06:38:52;0.10;99.90
17726;DHT22;8983;53.156;17.960;2023-02-03T06:41:20;0.10;99.90
17726;DHT22;8983;53.156;17.960;2023-02-03T06:43:53;0.10;99.90
17726;DHT22;8983;53.156;17.960;2023-02-03T06:46:21;0.10;99.90
17726;DHT22;8983;53.156;17.960;2023-02-03T06:48:49;0.10;99.90
17726;DHT22;8983;53.156;17.960;2023-02-03T06:51:17;0.20;99.90
17726;DHT22;8983;53.156;17.960;2023-02-03T06:53:47;0.20;99.90
17726;DHT22;8983;53.156;17.960;2023-02-03T06:56:17;0.20;99.90
17726;DHT22;8983;53.156;17.960;2023-02-03T06:58:44;0.20;99.90
17726;DHT22;8983;53.156;17.960;2023-02-03T07:01:12;0.30;99.90
17726;DHT22;8983;53.156;17.960;2023-02-03T07:03:40;0.30;99.90
17726;DHT22;8983;53.156;17.960;2023-02-03T07:06:08;0.30;99.90
17726;DHT22;8983;53.156;17.960;2023-02-03T07:08:36;1.20;99.90
17726;DHT22;8983;53.156;17.960;2023-02-03T07:11:05;0.30;99.90
17726;DHT22;8983;53.156;17.960;2023-02-03T07:13:34;0.30;99.90
17726;DHT22;8983;53.156;17.960;2023-02-03T07:16:02;0.30;99.90
17726;DHT22;8983;53.156;17.960;2023-02-03T07:18:30;0.30;99.90
17726;DHT22;8983;53.156;17.960;2023-02-03T07:21:14;0.30;99.90
17726;DHT22;8983;53.156;17.960;2023-02-03T07:23:42;0.40;99.90
17726;DHT22;8983;53.156;17.960;2023-02-03T07:26:10;0.40;99.90
17726;DHT22;8983;53.156;17.960;2023-02-03T07:28:40;0.40;99.90
17726;DHT22;8983;53.156;17.960;2023-02-03T07:31:08;0.40;99.90
17726;DHT22;8983;53.156;17.960;2023-02-03T07:33:37;0.40;99.90
17726;DHT22;8983;53.156;17.960;2023-02-03T07:36:06;0.40;99.90
17726;DHT22;8983;53.156;17.960;2023-02-03T07:38:34;0.40;99.90
17726;DHT22;8983;53.156;17.960;2023-02-03T07:41:04;0.40;99.90
17726;DHT22;8983;53.156;17.960;2023-02-03T07:43:32;0.40;99.90
17726;DHT22;8983;53.156;17.960;2023-02-03T07:46:02;0.40;99.90
17726;DHT22;8983;53.156;17.960;2023-02-03T07:48:30;0.40;99.90
17726;DHT22;8983;53.156;17.960;2023-02-03T07:50:58;0.40;99.90
17726;DHT22;8983;53.156;17.960;2023-02-03T07:53:26;0.30;99.90
17726;DHT22;8983;53.156;17.960;2023-02-03T07:55:53;0.30;99.90
17726;DHT22;8983;53.156;17.960;2023-02-03T07:58:21;0.30;99.90
17726;DHT22;8983;53.156;17.960;2023-02-03T08:00:49;0.30;99.90
17726;DHT22;8983;53.156;17.960;2023-02-03T08:03:19;0.40;99.90
17726;DHT22;8983;53.156;17.960;2023-02-03T08:05:47;0.30;99.90
17726;DHT22;8983;53.156;17.960;2023-02-03T08:08:15;0.40;99.90
17726;DHT22;8983;53.156;17.960;2023-02-03T08:10:43;0.40;99.90
17726;DHT22;8983;53.156;17.960;2023-02-03T08:13:13;0.40;99.90
17726;DHT22;8983;53.156;17.960;2023-02-03T08:15:41;0.40;99.90
17726;DHT22;8983;53.156;17.960;2023-02-03T08:18:09;0.40;99.90
17726;DHT22;8983;53.156;17.960;2023-02-03T08:20:39;0.40;99.90
17726;DHT22;8983;53.156;17.960;2023-02-03T08:23:07;0.40;99.90
17726;DHT22;8983;53.156;17.960;2023-02-03T08:25:35;0.40;99.90
17726;DHT22;8983;53.156;17.960;2023-02-03T08:28:03;0.40;99.90
17726;DHT22;8983;53.156;17.960;2023-02-03T08:30:31;0.50;99.90
17726;DHT22;8983;53.156;17.960;2023-02-03T08:32:59;0.50;99.90
17726;DHT22;8983;53.156;17.960;2023-02-03T08:35:28;0.50;99.90
17726;DHT22;8983;53.156;17.960;2023-02-03T08:38:09;0.50;99.90
17726;DHT22;8983;53.156;17.960;2023-02-03T08:40:37;0.50;99.90
17726;DHT22;8983;53.156;17.960;2023-02-03T08:43:05;0.50;99.90
17726;DHT22;8983;53.156;17.960;2023-02-03T08:45:33;0.50;99.90
17726;DHT22;8983;53.156;17.960;2023-02-03T08:48:01;0.50;99.90
17726;DHT22;8983;53.156;17.960;2023-02-03T08:50:29;0.50;99.90
17726;DHT22;8983;53.156;17.960;2023-02-03T08:52:58;0.50;99.90
17726;DHT22;8983;53.156;17.960;2023-02-03T08:55:27;0.50;99.90
17726;DHT22;8983;53.156;17.960;2023-02-03T08:57:55;0.60;99.90
17726;DHT22;8983;53.156;17.960;2023-02-03T09:00:23;0.50;99.90
17726;DHT22;8983;53.156;17.960;2023-02-03T09:02:52;0.50;99.90
17726;DHT22;8983;53.156;17.960;2023-02-03T09:05:20;0.60;99.90
17726;DHT22;8983;53.156;17.960;2023-02-03T09:07:48;0.60;99.90
17726;DHT22;8983;53.156;17.960;2023-02-03T09:10:16;0.60;99.90
17726;DHT22;8983;53.156;17.960;2023-02-03T09:12:46;0.60;99.90
17726;DHT22;8983;53.156;17.960;2023-02-03T09:15:14;0.60;99.90
17726;DHT22;8983;53.156;17.960;2023-02-03T09:17:42;0.70;99.90
17726;DHT22;8983;53.156;17.960;2023-02-03T09:20:10;0.60;99.90
17726;DHT22;8983;53.156;17.960;2023-02-03T09:22:40;0.60;99.90
17726;DHT22;8983;53.156;17.960;2023-02-03T09:25:09;0.60;99.90
17726;DHT22;8983;53.156;17.960;2023-02-03T09:27:37;0.60;99.90
17726;DHT22;8983;53.156;17.960;2023-02-03T09:30:07;0.60;99.90
17726;DHT22;8983;53.156;17.960;2023-02-03T09:32:35;0.60;99.90
17726;DHT22;8983;53.156;17.960;2023-02-03T09:35:04;0.60;99.90
17726;DHT22;8983;53.156;17.960;2023-02-03T09:37:32;0.60;99.90
17726;DHT22;8983;53.156;17.960;2023-02-03T09:40:00;0.60;99.90
17726;DHT22;8983;53.156;17.960;2023-02-03T09:42:54;0.60;99.90
17726;DHT22;8983;53.156;17.960;2023-02-03T09:45:28;0.60;99.90
17726;DHT22;8983;53.156;17.960;2023-02-03T09:48:01;0.60;99.90
17726;DHT22;8983;53.156;17.960;2023-02-03T09:50:32;0.80;99.90
17726;DHT22;8983;53.156;17.960;2023-02-03T09:53:05;0.60;99.90
17726;DHT22;8983;53.156;17.960;2023-02-03T09:55:37;0.60;99.90
17726;DHT22;8983;53.156;17.960;2023-02-03T09:58:09;0.60;99.90
17726;DHT22;8983;53.156;17.960;2023-02-03T10:00:42;0.60;99.90
17726;DHT22;8983;53.156;17.960;2023-02-03T10:03:20;0.60;99.90
17726;DHT22;8983;53.156;17.960;2023-02-03T10:09:06;0.60;99.90
17726;DHT22;8983;53.156;17.960;2023-02-03T10:11:53;0.60;99.90
17726;DHT22;8983;53.156;17.960;2023-02-03T10:14:35;0.60;99.90
17726;DHT22;8983;53.156;17.960;2023-02-03T10:17:14;0.60;99.90
17726;DHT22;8983;53.156;17.960;2023-02-03T10:19:47;0.60;99.90
17726;DHT22;8983;53.156;17.960;2023-02-03T10:22:18;0.60;99.90
17726;DHT22;8983;53.156;17.960;2023-02-03T10:24:51;0.60;99.90
17726;DHT22;8983;53.156;17.960;2023-02-03T10:27:22;0.60;99.90
17726;DHT22;8983;53.156;17.960;2023-02-03T10:29:55;0.50;99.90
17726;DHT22;8983;53.156;17.960;2023-02-03T10:32:26;0.50;99.90
17726;DHT22;8983;53.156;17.960;2023-02-03T10:34:56;0.60;99.90
17726;DHT22;8983;53.156;17.960;2023-02-03T10:37:26;0.60;99.90
17726;DHT22;8983;53.156;17.960;2023-02-03T10:39:57;0.60;99.90
17726;DHT22;8983;53.156;17.960;2023-02-03T10:42:27;0.60;99.90
17726;DHT22;8983;53.156;17.960;2023-02-03T10:45:15;0.60;99.90
17726;DHT22;8983;53.156;17.960;2023-02-03T10:47:47;0.60;99.90
17726;DHT22;8983;53.156;17.960;2023-02-03T10:50:18;0.60;99.90
17726;DHT22;8983;53.156;17.960;2023-02-03T10:52:47;0.60;99.90
17726;DHT22;8983;53.156;17.960;2023-02-03T10:55:29;0.60;99.90
17726;DHT22;8983;53.156;17.960;2023-02-03T10:58:07;0.60;99.90
17726;DHT22;8983;53.156;17.960;2023-02-03T11:00:39;0.60;99.90
17726;DHT22;8983;53.156;17.960;2023-02-03T11:03:20;0.60;99.90
17726;DHT22;8983;53.156;17.960;2023-02-03T11:06:03;0.60;99.90
17726;DHT22;8983;53.156;17.960;2023-02-03T11:08:32;0.60;99.90
17726;DHT22;8983;53.156;17.960;2023-02-03T11:11:05;0.60;99.90
17726;DHT22;8983;53.156;17.960;2023-02-03T11:13:34;0.60;99.90
17726;DHT22;8983;53.156;17.960;2023-02-03T11:16:04;0.60;99.90
17726;DHT22;8983;53.156;17.960;2023-02-03T11:18:50;0.60;99.90
17726;DHT22;8983;53.156;17.960;2023-02-03T11:21:20;0.60;99.90
17726;DHT22;8983;53.156;17.960;2023-02-03T11:23:54;0.60;99.90
17726;DHT22;8983;53.156;17.960;2023-02-03T11:26:25;0.60;99.90
17726;DHT22;8983;53.156;17.960;2023-02-03T11:28:57;0.60;99.90
17726;DHT22;8983;53.156;17.960;2023-02-03T11:31:27;0.60;99.90
17726;DHT22;8983;53.156;17.960;2023-02-03T11:34:00;0.60;99.90
17726;DHT22;8983;53.156;17.960;2023-02-03T11:36:30;0.60;99.90
17726;DHT22;8983;53.156;17.960;2023-02-03T11:39:17;0.60;99.90
17726;DHT22;8983;53.156;17.960;2023-02-03T11:41:46;0.60;99.90
17726;DHT22;8983;53.156;17.960;2023-02-03T11:44:20;0.60;99.90
17726;DHT22;8983;53.156;17.960;2023-02-03T11:46:52;0.60;99.90
17726;DHT22;8983;53.156;17.960;2023-02-03T11:49:42;0.60;99.90
17726;DHT22;8983;53.156;17.960;2023-02-03T11:55:33;0.60;99.90
17726;DHT22;8983;53.156;17.960;2023-02-03T11:58:18;0.60;99.90
17726;DHT22;8983;53.156;17.960;2023-02-03T12:00:56;0.60;99.90
17726;DHT22;8983;53.156;17.960;2023-02-03T12:03:58;0.60;99.90
17726;DHT22;8983;53.156;17.960;2023-02-03T12:06:55;0.60;99.90
17726;DHT22;8983;53.156;17.960;2023-02-03T12:09:33;0.60;99.90
17726;DHT22;8983;53.156;17.960;2023-02-03T12:12:27;0.60;99.90
17726;DHT22;8983;53.156;17.960;2023-02-03T12:15:05;0.60;99.90
17726;DHT22;8983;53.156;17.960;2023-02-03T12:17:53;0.60;99.90
17726;DHT22;8983;53.156;17.960;2023-02-03T12:20:34;0.60;99.90
17726;DHT22;8983;53.156;17.960;2023-02-03T12:23:16;0.60;99.90
17726;DHT22;8983;53.156;17.960;2023-02-03T12:25:56;0.60;99.90
17726;DHT22;8983;53.156;17.960;2023-02-03T12:28:38;0.60;99.90
17726;DHT22;8983;53.156;17.960;2023-02-03T12:31:12;0.70;99.90
17726;DHT22;8983;53.156;17.960;2023-02-03T12:33:43;0.70;99.90
17726;DHT22;8983;53.156;17.960;2023-02-03T12:36:14;0.70;99.90
17726;DHT22;8983;53.156;17.960;2023-02-03T12:38:50;0.70;99.90
17726;DHT22;8983;53.156;17.960;2023-02-03T12:41:21;0.70;99.90
17726;DHT22;8983;53.156;17.960;2023-02-03T12:43:53;0.70;99.90
17726;DHT22;8983;53.156;17.960;2023-02-03T12:46:26;0.70;99.90
17726;DHT22;8983;53.156;17.960;2023-02-03T12:48:58;0.70;99.90
17726;DHT22;8983;53.156;17.960;2023-02-03T12:51:33;0.70;99.90
17726;DHT22;8983;53.156;17.960;2023-02-03T12:54:11;0.70;99.90
17726;DHT22;8983;53.156;17.960;2023-02-03T12:56:42;0.70;99.90
17726;DHT22;8983;53.156;17.960;2023-02-03T12:59:16;0.70;99.90
17726;DHT22;8983;53.156;17.960;2023-02-03T13:01:48;0.70;99.90
17726;DHT22;8983;53.156;17.960;2023-02-03T13:04:24;0.70;99.90
17726;DHT22;8983;53.156;17.960;2023-02-03T13:06:56;0.70;99.90
17726;DHT22;8983;53.156;17.960;2023-02-03T13:09:32;0.80;99.90
17726;DHT22;8983;53.156;17.960;2023-02-03T13:15:04;0.80;99.90
17726;DHT22;8983;53.156;17.960;2023-02-03T13:17:40;0.80;99.90
17726;DHT22;8983;53.156;17.960;2023-02-03T13:20:16;0.80;99.90
17726;DHT22;8983;53.156;17.960;2023-02-03T13:22:45;0.80;99.90
17726;DHT22;8983;53.156;17.960;2023-02-03T13:25:19;0.90;99.90
17726;DHT22;8983;53.156;17.960;2023-02-03T13:27:57;0.90;99.90
17726;DHT22;8983;53.156;17.960;2023-02-03T13:30:46;0.90;99.90
17726;DHT22;8983;53.156;17.960;2023-02-03T13:33:49;1.00;99.90
17726;DHT22;8983;53.156;17.960;2023-02-03T13:36:50;1.00;99.90
17726;DHT22;8983;53.156;17.960;2023-02-03T13:39:33;1.00;99.90
17726;DHT22;8983;53.156;17.960;2023-02-03T13:42:22;1.10;99.90
17726;DHT22;8983;53.156;17.960;2023-02-03T13:44:53;1.10;99.90
17726;DHT22;8983;53.156;17.960;2023-02-03T13:47:27;1.10;99.90
17726;DHT22;8983;53.156;17.960;2023-02-03T13:49:58;1.10;99.90
17726;DHT22;8983;53.156;17.960;2023-02-03T13:52:33;1.10;99.90
17726;DHT22;8983;53.156;17.960;2023-02-03T13:55:02;1.20;99.90
17726;DHT22;8983;53.156;17.960;2023-02-03T13:57:33;1.20;99.90
17726;DHT22;8983;53.156;17.960;2023-02-03T14:00:03;1.20;99.90
17726;DHT22;8983;53.156;17.960;2023-02-03T14:02:54;1.30;99.90
17726;DHT22;8983;53.156;17.960;2023-02-03T14:05:42;1.30;99.90
17726;DHT22;8983;53.156;17.960;2023-02-03T14:08:41;1.30;99.90
17726;DHT22;8983;53.156;17.960;2023-02-03T14:11:40;1.30;99.90
17726;DHT22;8983;53.156;17.960;2023-02-03T14:14:40;1.40;99.90
17726;DHT22;8983;53.156;17.960;2023-02-03T14:20:49;1.40;99.90
17726;DHT22;8983;53.156;17.960;2023-02-03T14:23:22;1.40;99.90
17726;DHT22;8983;53.156;17.960;2023-02-03T14:25:54;1.40;99.90
17726;DHT22;8983;53.156;17.960;2023-02-03T14:28:28;1.40;99.90
17726;DHT22;8983;53.156;17.960;2023-02-03T14:31:04;1.40;99.90
17726;DHT22;8983;53.156;17.960;2023-02-03T14:34:00;1.50;99.90
17726;DHT22;8983;53.156;17.960;2023-02-03T14:36:38;1.50;99.90
17726;DHT22;8983;53.156;17.960;2023-02-03T14:39:34;1.40;99.90
17726;DHT22;8983;53.156;17.960;2023-02-03T14:42:12;1.40;99.90
17726;DHT22;8983;53.156;17.960;2023-02-03T14:44:54;1.50;99.90
17726;DHT22;8983;53.156;17.960;2023-02-03T14:47:39;1.50;99.90
17726;DHT22;8983;53.156;17.960;2023-02-03T14:50:28;1.50;99.90
17726;DHT22;8983;53.156;17.960;2023-02-03T14:53:16;1.50;99.90
17726;DHT22;8983;53.156;17.960;2023-02-03T14:55:54;1.50;99.90
17726;DHT22;8983;53.156;17.960;2023-02-03T14:58:28;1.50;99.90
17726;DHT22;8983;53.156;17.960;2023-02-03T15:01:02;1.50;99.90
17726;DHT22;8983;53.156;17.960;2023-02-03T15:03:30;1.50;99.90
17726;DHT22;8983;53.156;17.960;2023-02-03T15:06:00;1.50;99.90
17726;DHT22;8983;53.156;17.960;2023-02-03T15:08:42;1.50;99.90
17726;DHT22;8983;53.156;17.960;2023-02-03T15:11:31;1.50;99.90
17726;DHT22;8983;53.156;17.960;2023-02-03T15:14:19;1.50;99.90
17726;DHT22;8983;53.156;17.960;2023-02-03T15:16:52;1.60;99.90
17726;DHT22;8983;53.156;17.960;2023-02-03T15:19:23;1.50;99.90
17726;DHT22;8983;53.156;17.960;2023-02-03T15:21:52;1.60;99.90
17726;DHT22;8983;53.156;17.960;2023-02-03T15:24:21;1.60;99.90
17726;DHT22;8983;53.156;17.960;2023-02-03T15:26:52;1.60;99.90
17726;DHT22;8983;53.156;17.960;2023-02-03T15:29:27;1.60;99.90
17726;DHT22;8983;53.156;17.960;2023-02-03T15:32:06;1.60;99.90
17726;DHT22;8983;53.156;17.960;2023-02-03T15:34:38;1.60;99.90
17726;DHT22;8983;53.156;17.960;2023-02-03T15:37:15;1.60;99.90
17726;DHT22;8983;53.156;17.960;2023-02-03T15:39:58;1.60;99.90
17726;DHT22;8983;53.156;17.960;2023-02-03T15:42:30;1.60;99.90
17726;DHT22;8983;53.156;17.960;2023-02-03T15:45:02;1.60;99.90
17726;DHT22;8983;53.156;17.960;2023-02-03T15:47:36;1.70;99.90
17726;DHT22;8983;53.156;17.960;2023-02-03T15:50:14;1.70;99.90
17726;DHT22;8983;53.156;17.960;2023-02-03T15:52:44;1.70;99.90
17726;DHT22;8983;53.156;17.960;2023-02-03T15:55:19;1.70;99.90
17726;DHT22;8983;53.156;17.960;2023-02-03T15:57:51;1.70;99.90
17726;DHT22;8983;53.156;17.960;2023-02-03T16:00:30;1.70;99.90
17726;DHT22;8983;53.156;17.960;2023-02-03T16:02:59;1.70;99.90
17726;DHT22;8983;53.156;17.960;2023-02-03T16:05:30;1.80;99.90
17726;DHT22;8983;53.156;17.960;2023-02-03T16:08:26;1.80;99.90
17726;DHT22;8983;53.156;17.960;2023-02-03T16:10:56;1.80;99.90
17726;DHT22;8983;53.156;17.960;2023-02-03T16:13:26;1.80;99.90
17726;DHT22;8983;53.156;17.960;2023-02-03T16:15:59;1.80;99.90
17726;DHT22;8983;53.156;17.960;2023-02-03T16:18:28;1.80;99.90
17726;DHT22;8983;53.156;17.960;2023-02-03T16:20:56;1.90;99.90
17726;DHT22;8983;53.156;17.960;2023-02-03T16:23:24;1.90;99.90
17726;DHT22;8983;53.156;17.960;2023-02-03T16:26:14;1.90;99.90
17726;DHT22;8983;53.156;17.960;2023-02-03T16:28:54;1.90;99.90
17726;DHT22;8983;53.156;17.960;2023-02-03T16:31:44;1.90;99.90
17726;DHT22;8983;53.156;17.960;2023-02-03T16:34:30;2.00;99.90
17726;DHT22;8983;53.156;17.960;2023-02-03T16:37:22;2.00;99.90